Time;durP1;ratioP1;P1;durP2;ratioP2;P2;SDS_P1;SDS_P2;PMS_P1;PMS_P2;Temp;Humidity;BMP_temperature;BMP_pressure;BME280_temperature;BME280_humidity;BME280_pressure;Samples;Min_cycle;Max_cycle;Signal;HPM_P1;HPM_P2
2019/08/20 00:01:07;;;;;;;2.21;1.59;;;;;;;22.77;58.54;101006.98;;;;-60
2019/08/20 00:04:06;;;;;;;1.65;1.49;;;;;;;22.76;58.53;101004.72;;;;-60
2019/08/20 00:07:06;;;;;;;2.01;1.79;;;;;;;22.76;58.52;101005.46;;;;-59
2019/08/20 00:10:06;;;;;;;1.79;1.58;;;;;;;22.75;58.52;101002.09;;;;-60
2019/08/20 00:13:06;;;;;;;1.71;1.60;;;;;;;22.75;58.45;101004.95;;;;-60
2019/08/20 00:16:06;;;;;;;2.13;1.70;;;;;;;22.74;58.47;101003.84;;;;-59
2019/08/20 00:19:06;;;;;;;1.61;1.51;;;;;;;22.75;58.49;100997.27;;;;-60
2019/08/20 00:22:06;;;;;;;1.79;1.60;;;;;;;22.74;58.50;100993.39;;;;-60
2019/08/20 00:25:06;;;;;;;1.81;1.68;;;;;;;22.74;58.46;100988.52;;;;-59
2019/08/20 00:28:06;;;;;;;1.95;1.62;;;;;;;22.74;58.47;100982.65;;;;-60
2019/08/20 00:31:06;;;;;;;1.72;1.62;;;;;;;22.73;58.46;100988.84;;;;-60
2019/08/20 00:34:06;;;;;;;1.81;1.71;;;;;;;22.73;58.46;100982.47;;;;-60
2019/08/20 00:37:06;;;;;;;1.98;1.61;;;;;;;22.73;58.48;100977.42;;;;-60
2019/08/20 00:40:06;;;;;;;1.69;1.59;;;;;;;22.73;58.51;100974.52;;;;-61
2019/08/20 00:43:06;;;;;;;1.65;1.55;;;;;;;22.72;58.47;100974.96;;;;-60
2019/08/20 00:46:06;;;;;;;2.07;1.73;;;;;;;22.72;58.50;100973.48;;;;-60
2019/08/20 00:49:06;;;;;;;1.72;1.53;;;;;;;22.72;58.49;100966.06;;;;-60
2019/08/20 00:52:06;;;;;;;1.71;1.61;;;;;;;22.71;58.49;100967.52;;;;-60
2019/08/20 00:55:06;;;;;;;1.73;1.63;;;;;;;22.72;58.44;100977.86;;;;-60
2019/08/20 00:58:06;;;;;;;1.69;1.59;;;;;;;22.71;58.46;100979.53;;;;-60
2019/08/20 01:01:06;;;;;;;1.76;1.58;;;;;;;22.71;58.50;100978.29;;;;-60
2019/08/20 01:04:05;;;;;;;2.36;1.67;;;;;;;22.71;58.42;100974.38;;;;-61
2019/08/20 01:07:06;;;;;;;2.19;1.63;;;;;;;22.71;58.46;100971.69;;;;-60
2019/08/20 01:13:06;;;;;;;2.27;1.61;;;;;;;22.70;58.43;100983.27;;;;-61
2019/08/20 01:16:06;;;;;;;1.63;1.53;;;;;;;22.70;58.40;100988.86;;;;-61
2019/08/20 01:19:06;;;;;;;1.70;1.60;;;;;;;22.70;58.41;100990.03;;;;-61
2019/08/20 01:22:06;;;;;;;2.19;1.64;;;;;;;22.70;58.38;100986.40;;;;-61
2019/08/20 01:25:06;;;;;;;1.83;1.67;;;;;;;22.70;58.39;100992.13;;;;-59
2019/08/20 01:28:06;;;;;;;1.60;1.50;;;;;;;22.70;58.38;100995.48;;;;-60
2019/08/20 01:31:06;;;;;;;1.80;1.70;;;;;;;22.70;58.41;100997.07;;;;-60
2019/08/20 01:34:06;;;;;;;1.81;1.69;;;;;;;22.70;58.37;101002.46;;;;-59
2019/08/20 01:37:06;;;;;;;1.67;1.53;;;;;;;22.68;58.38;101007.70;;;;-61
2019/08/20 01:40:06;;;;;;;1.60;1.50;;;;;;;22.69;58.38;101010.77;;;;-62
2019/08/20 01:43:06;;;;;;;1.72;1.61;;;;;;;22.69;58.36;101013.80;;;;-61
2019/08/20 01:46:06;;;;;;;1.73;1.63;;;;;;;22.68;58.38;101001.54;;;;-60
2019/08/20 01:49:06;;;;;;;1.79;1.69;;;;;;;22.68;58.40;101004.33;;;;-61
2019/08/20 01:52:06;;;;;;;1.69;1.59;;;;;;;22.68;58.38;101009.72;;;;-61
2019/08/20 01:55:06;;;;;;;1.81;1.60;;;;;;;22.68;58.36;101005.00;;;;-61
2019/08/20 01:58:06;;;;;;;1.70;1.60;;;;;;;22.67;58.40;101008.50;;;;-61
2019/08/20 02:01:06;;;;;;;1.79;1.69;;;;;;;22.67;58.38;101008.06;;;;-61
2019/08/20 02:04:06;;;;;;;1.66;1.56;;;;;;;22.67;58.40;101007.16;;;;-61
2019/08/20 02:07:06;;;;;;;1.77;1.67;;;;;;;22.67;58.34;101007.56;;;;-61
2019/08/20 02:10:06;;;;;;;1.95;1.74;;;;;;;22.66;58.35;100997.02;;;;-61
2019/08/20 02:13:06;;;;;;;1.67;1.57;;;;;;;22.66;58.31;100995.84;;;;-61
2019/08/20 02:16:06;;;;;;;1.75;1.65;;;;;;;22.66;58.33;100996.41;;;;-61
2019/08/20 02:19:09;;;;;;;1.99;1.75;;;;;;;22.66;58.31;101000.05;;;;-61
2019/08/20 02:22:06;;;;;;;2.13;1.70;;;;;;;22.65;58.35;101000.68;;;;-61
2019/08/20 02:25:06;;;;;;;1.77;1.61;;;;;;;22.65;58.33;100998.89;;;;-60
2019/08/20 02:28:06;;;;;;;1.71;1.61;;;;;;;22.65;58.31;101002.43;;;;-60
2019/08/20 02:31:06;;;;;;;1.70;1.60;;;;;;;22.64;58.43;100999.36;;;;-60
2019/08/20 02:34:06;;;;;;;1.91;1.69;;;;;;;22.64;58.34;101002.99;;;;-60
2019/08/20 02:37:06;;;;;;;1.78;1.68;;;;;;;22.64;58.29;101010.40;;;;-60
2019/08/20 02:40:06;;;;;;;1.69;1.59;;;;;;;22.64;58.37;101016.87;;;;-60
2019/08/20 02:43:06;;;;;;;1.81;1.71;;;;;;;22.63;58.31;101018.78;;;;-60
2019/08/20 02:46:06;;;;;;;1.60;1.50;;;;;;;22.63;58.31;101011.71;;;;-60
2019/08/20 02:49:05;;;;;;;1.59;1.49;;;;;;;22.64;58.31;101011.24;;;;-59
2019/08/20 02:52:06;;;;;;;1.77;1.67;;;;;;;22.63;58.29;101014.47;;;;-60
2019/08/20 02:55:06;;;;;;;1.77;1.67;;;;;;;22.63;58.28;101020.53;;;;-60
2019/08/20 02:58:06;;;;;;;1.75;1.65;;;;;;;22.63;58.28;101021.88;;;;-60
2019/08/20 03:01:06;;;;;;;1.75;1.65;;;;;;;22.62;58.29;101021.09;;;;-59
2019/08/20 03:04:06;;;;;;;1.80;1.70;;;;;;;22.63;58.26;101019.52;;;;-60
2019/08/20 03:07:05;;;;;;;1.93;1.81;;;;;;;22.61;58.32;101016.52;;;;-60
2019/08/20 03:10:05;;;;;;;1.70;1.60;;;;;;;22.61;58.30;101012.03;;;;-59
2019/08/20 03:13:06;;;;;;;1.61;1.51;;;;;;;22.61;58.28;101016.27;;;;-60
2019/08/20 03:16:06;;;;;;;1.71;1.61;;;;;;;22.61;58.28;101023.14;;;;-60
2019/08/20 03:19:06;;;;;;;1.78;1.65;;;;;;;22.59;58.29;101021.14;;;;-60
2019/08/20 03:22:06;;;;;;;1.81;1.65;;;;;;;22.60;58.29;101022.30;;;;-59
2019/08/20 03:25:06;;;;;;;1.70;1.60;;;;;;;22.59;58.29;101009.86;;;;-60
2019/08/20 03:28:06;;;;;;;1.70;1.60;;;;;;;22.59;58.28;101001.45;;;;-60
2019/08/20 03:31:06;;;;;;;1.69;1.59;;;;;;;22.58;58.29;101005.95;;;;-60
2019/08/20 03:34:06;;;;;;;1.61;1.51;;;;;;;22.59;58.25;101007.23;;;;-60
2019/08/20 03:37:06;;;;;;;1.79;1.69;;;;;;;22.59;58.32;101001.52;;;;-60
2019/08/20 03:40:06;;;;;;;2.07;1.88;;;;;;;22.58;58.24;101010.66;;;;-59
2019/08/20 03:43:06;;;;;;;1.70;1.60;;;;;;;22.59;58.25;101023.40;;;;-60
2019/08/20 03:46:05;;;;;;;2.00;1.59;;;;;;;22.58;58.26;101010.43;;;;-60
2019/08/20 03:49:05;;;;;;;1.75;1.65;;;;;;;22.58;58.25;101005.28;;;;-60
2019/08/20 03:52:06;;;;;;;1.60;1.50;;;;;;;22.57;58.28;101008.70;;;;-60
2019/08/20 03:55:06;;;;;;;1.70;1.60;;;;;;;22.58;58.25;101001.91;;;;-49
2019/08/20 03:58:06;;;;;;;1.92;1.66;;;;;;;22.57;58.25;101002.95;;;;-49
2019/08/20 04:01:06;;;;;;;1.71;1.61;;;;;;;22.56;58.25;101013.95;;;;-52
2019/08/20 04:04:06;;;;;;;1.73;1.63;;;;;;;22.57;58.24;101025.34;;;;-51
2019/08/20 04:07:05;;;;;;;1.73;1.62;;;;;;;22.56;58.28;101028.27;;;;-51
2019/08/20 04:10:05;;;;;;;3.45;2.44;;;;;;;22.39;54.52;101036.07;;;;-52
2019/08/20 04:13:06;;;;;;;5.42;3.21;;;;;;;22.06;52.33;101031.47;;;;-51
2019/08/20 04:16:06;;;;;;;5.07;3.27;;;;;;;21.81;52.05;101027.56;;;;-51
2019/08/20 04:19:06;;;;;;;6.05;3.30;;;;;;;21.83;52.98;101038.25;;;;-52
2019/08/20 04:22:05;;;;;;;5.89;3.07;;;;;;;21.91;53.77;101036.27;;;;-51
2019/08/20 04:25:06;;;;;;;6.25;3.25;;;;;;;21.99;54.20;101038.23;;;;-51
2019/08/20 04:28:06;;;;;;;5.15;3.10;;;;;;;22.04;54.41;101041.81;;;;-50
2019/08/20 04:31:06;;;;;;;4.45;3.03;;;;;;;22.07;54.42;101038.25;;;;-57
2019/08/20 04:34:06;;;;;;;4.33;2.90;;;;;;;22.10;55.05;101039.28;;;;-58
2019/08/20 04:37:06;;;;;;;4.47;3.17;;;;;;;22.12;55.24;101041.66;;;;-58
2019/08/20 04:40:06;;;;;;;3.90;2.81;;;;;;;22.14;55.40;101044.84;;;;-58
2019/08/20 04:43:05;;;;;;;4.27;2.81;;;;;;;22.16;55.50;101043.48;;;;-58
2019/08/20 04:46:06;;;;;;;4.11;2.87;;;;;;;22.18;55.67;101039.86;;;;-57
2019/08/20 04:49:06;;;;;;;3.81;2.86;;;;;;;22.19;55.83;101038.16;;;;-60
2019/08/20 04:52:06;;;;;;;5.16;2.88;;;;;;;22.20;55.92;101043.11;;;;-57
2019/08/20 04:55:06;;;;;;;4.51;2.95;;;;;;;22.21;56.05;101050.39;;;;-49
2019/08/20 04:58:05;;;;;;;4.61;2.94;;;;;;;22.22;56.09;101053.87;;;;-57
2019/08/20 05:01:06;;;;;;;4.11;2.87;;;;;;;22.23;56.25;101049.50;;;;-57
2019/08/20 05:04:06;;;;;;;3.51;2.81;;;;;;;22.22;56.25;101048.22;;;;-57
2019/08/20 05:07:06;;;;;;;3.42;2.67;;;;;;;22.24;56.53;101047.13;;;;-50
2019/08/20 05:10:06;;;;;;;3.50;2.75;;;;;;;22.24;56.41;101040.39;;;;-57
2019/08/20 05:13:06;;;;;;;4.99;2.98;;;;;;;22.25;56.57;101044.06;;;;-57
2019/08/20 05:16:05;;;;;;;4.75;2.75;;;;;;;22.27;56.59;101039.78;;;;-49
2019/08/20 05:19:05;;;;;;;3.64;2.77;;;;;;;22.26;56.60;101038.39;;;;-58
2019/08/20 05:22:05;;;;;;;5.10;2.56;;;;;;;22.28;56.66;101047.69;;;;-58
2019/08/20 05:25:06;;;;;;;4.59;2.73;;;;;;;22.28;56.67;101049.54;;;;-58
2019/08/20 05:28:05;;;;;;;3.51;2.70;;;;;;;22.29;56.69;101050.70;;;;-58
2019/08/20 05:31:06;;;;;;;4.15;2.65;;;;;;;22.28;56.76;101056.65;;;;-58
2019/08/20 05:34:06;;;;;;;3.49;2.69;;;;;;;22.29;56.79;101053.12;;;;-58
2019/08/20 05:37:05;;;;;;;2.54;2.34;;;;;;;22.28;56.78;101055.80;;;;-58
2019/08/20 05:40:05;;;;;;;3.69;2.54;;;;;;;22.29;56.83;101052.78;;;;-58
2019/08/20 05:43:06;;;;;;;3.95;2.65;;;;;;;22.28;56.82;101051.50;;;;-58
2019/08/20 05:46:06;;;;;;;3.91;2.35;;;;;;;22.29;56.94;101051.70;;;;-58
2019/08/20 05:49:06;;;;;;;4.41;2.54;;;;;;;22.30;56.97;101054.67;;;;-58
2019/08/20 05:52:06;;;;;;;5.33;2.45;;;;;;;22.30;56.98;101056.23;;;;-58
2019/08/20 05:55:06;;;;;;;5.27;2.62;;;;;;;22.30;56.92;101061.52;;;;-59
2019/08/20 05:58:06;;;;;;;3.09;2.40;;;;;;;22.30;56.99;101065.14;;;;-58
2019/08/20 06:01:06;;;;;;;3.09;2.65;;;;;;;22.31;57.01;101077.37;;;;-59
2019/08/20 06:04:05;;;;;;;5.43;2.60;;;;;;;22.31;56.99;101074.34;;;;-59
2019/08/20 06:07:06;;;;;;;3.80;2.55;;;;;;;22.31;57.05;101073.00;;;;-59
2019/08/20 06:10:10;;;;;;;3.98;2.76;;;;;;;22.31;57.02;101076.02;;;;-59
2019/08/20 06:13:06;;;;;;;3.01;2.47;;;;;;;22.31;57.03;101076.43;;;;-59
2019/08/20 06:16:05;;;;;;;2.83;2.55;;;;;;;22.31;57.00;101075.42;;;;-60
2019/08/20 06:19:05;;;;;;;2.67;2.32;;;;;;;22.32;57.07;101074.72;;;;-59
2019/08/20 06:22:06;;;;;;;2.58;2.38;;;;;;;22.31;57.02;101084.95;;;;-51
2019/08/20 06:25:06;;;;;;;3.25;2.51;;;;;;;22.32;57.04;101091.05;;;;-58
2019/08/20 06:28:06;;;;;;;2.70;2.37;;;;;;;22.32;57.06;101086.39;;;;-51
2019/08/20 06:31:06;;;;;;;3.42;2.59;;;;;;;22.31;57.10;101088.82;;;;-51
2019/08/20 06:34:06;;;;;;;3.82;2.27;;;;;;;22.32;57.10;101099.53;;;;-59
2019/08/20 06:37:05;;;;;;;3.47;2.46;;;;;;;22.33;57.13;101108.83;;;;-58
2019/08/20 06:40:05;;;;;;;2.63;2.40;;;;;;;22.33;57.09;101112.19;;;;-50
2019/08/20 06:43:05;;;;;;;4.16;2.42;;;;;;;22.32;57.08;101118.14;;;;-57
2019/08/20 06:46:06;;;;;;;2.63;2.37;;;;;;;22.33;57.20;101122.79;;;;-57
2019/08/20 06:49:06;;;;;;;2.50;2.30;;;;;;;22.33;57.12;101123.47;;;;-59
2019/08/20 06:52:05;;;;;;;3.28;2.29;;;;;;;22.33;57.17;101129.19;;;;-51
2019/08/20 06:55:06;;;;;;;3.77;2.29;;;;;;;22.33;57.13;101132.05;;;;-59
2019/08/20 06:58:05;;;;;;;2.89;2.39;;;;;;;22.33;57.14;101131.88;;;;-60
2019/08/20 07:01:06;;;;;;;3.03;2.42;;;;;;;22.33;57.14;101134.17;;;;-50
2019/08/20 07:04:06;;;;;;;2.71;2.17;;;;;;;22.32;57.21;101132.95;;;;-58
2019/08/20 07:07:06;;;;;;;2.49;2.21;;;;;;;22.32;57.13;101132.95;;;;-51
2019/08/20 07:10:05;;;;;;;2.54;2.30;;;;;;;22.33;57.16;101126.42;;;;-58
2019/08/20 07:13:05;;;;;;;2.68;2.33;;;;;;;22.32;57.14;101121.34;;;;-50
2019/08/20 07:16:05;;;;;;;2.37;2.17;;;;;;;22.33;57.13;101114.04;;;;-50
2019/08/20 07:19:05;;;;;;;2.65;2.29;;;;;;;22.32;57.14;101110.80;;;;-49
2019/08/20 07:22:06;;;;;;;2.50;2.30;;;;;;;22.33;57.10;101107.24;;;;-49
2019/08/20 07:25:06;;;;;;;2.52;2.17;;;;;;;22.32;57.13;101105.19;;;;-50
2019/08/20 07:28:05;;;;;;;2.50;2.18;;;;;;;22.32;57.10;101098.95;;;;-49
2019/08/20 07:31:10;;;;;;;3.57;2.11;;;;;;;22.33;57.06;101097.14;;;;-57
2019/08/20 07:34:13;;;;;;;2.57;2.31;;;;;;;22.32;57.05;101098.11;;;;-57
2019/08/20 07:37:14;;;;;;;2.37;2.16;;;;;;;22.32;57.10;101101.14;;;;-49
2019/08/20 07:40:06;;;;;;;2.31;2.09;;;;;;;22.32;57.12;101102.49;;;;-50
2019/08/20 07:43:06;;;;;;;2.54;2.32;;;;;;;22.33;57.17;101113.13;;;;-50
2019/08/20 07:46:06;;;;;;;2.76;2.36;;;;;;;22.32;57.10;101119.31;;;;-56
2019/08/20 07:49:06;;;;;;;2.36;2.16;;;;;;;22.33;57.14;101123.47;;;;-57
2019/08/20 07:52:06;;;;;;;2.73;2.19;;;;;;;22.32;57.16;101123.93;;;;-49
2019/08/20 07:55:06;;;;;;;2.53;2.19;;;;;;;22.32;57.19;101132.17;;;;-50
2019/08/20 07:58:06;;;;;;;2.09;1.89;;;;;;;22.33;57.21;101142.31;;;;-49
2019/08/20 08:01:06;;;;;;;2.45;2.24;;;;;;;22.33;57.20;101147.03;;;;-57
2019/08/20 08:04:06;;;;;;;2.19;1.99;;;;;;;22.33;57.17;101153.59;;;;-58
2019/08/20 08:07:05;;;;;;;2.86;2.37;;;;;;;22.32;57.23;101150.28;;;;-50
2019/08/20 08:10:05;;;;;;;3.02;2.21;;;;;;;22.33;57.15;101148.64;;;;-55
2019/08/20 08:13:05;;;;;;;2.59;2.19;;;;;;;22.34;57.22;101152.28;;;;-57
2019/08/20 08:16:05;;;;;;;2.75;2.13;;;;;;;22.33;57.22;101156.28;;;;-49
2019/08/20 08:19:06;;;;;;;2.20;2.00;;;;;;;22.33;57.19;101154.60;;;;-50
2019/08/20 08:22:06;;;;;;;2.22;1.95;;;;;;;22.33;57.16;101155.44;;;;-57
2019/08/20 08:25:05;;;;;;;2.11;1.91;;;;;;;22.33;57.16;101158.57;;;;-49
2019/08/20 08:28:05;;;;;;;2.39;2.05;;;;;;;22.33;57.12;101158.23;;;;-57
2019/08/20 08:31:05;;;;;;;2.73;2.09;;;;;;;22.33;57.18;101160.33;;;;-50
2019/08/20 08:34:05;;;;;;;2.10;1.90;;;;;;;22.33;57.15;101160.25;;;;-57
2019/08/20 08:37:06;;;;;;;2.61;1.94;;;;;;;22.33;57.19;101165.03;;;;-49
2019/08/20 08:40:06;;;;;;;2.91;1.98;;;;;;;22.32;57.17;101162.97;;;;-57
2019/08/20 08:43:05;;;;;;;2.53;1.93;;;;;;;22.33;57.20;101166.38;;;;-50
2019/08/20 08:46:05;;;;;;;2.19;1.99;;;;;;;22.32;57.14;101165.77;;;;-58
2019/08/20 08:49:05;;;;;;;2.25;1.99;;;;;;;22.33;57.14;101168.33;;;;-49
2019/08/20 08:52:05;;;;;;;2.58;2.08;;;;;;;22.32;57.16;101173.34;;;;-49
2019/08/20 08:55:05;;;;;;;2.36;2.05;;;;;;;22.32;57.20;101173.01;;;;-49
2019/08/20 08:58:06;;;;;;;2.63;2.06;;;;;;;22.33;57.15;101170.25;;;;-50
2019/08/20 09:01:06;;;;;;;2.10;1.90;;;;;;;22.33;57.16;101174.91;;;;-50
2019/08/20 09:04:05;;;;;;;2.22;1.99;;;;;;;22.33;57.19;101172.77;;;;-57
2019/08/20 09:07:06;;;;;;;2.10;1.90;;;;;;;22.33;57.16;101172.54;;;;-60
2019/08/20 09:10:06;;;;;;;3.20;2.10;;;;;;;22.33;57.19;101175.47;;;;-50
2019/08/20 09:13:06;;;;;;;2.29;2.00;;;;;;;22.32;57.22;101179.39;;;;-50
2019/08/20 09:16:05;;;;;;;2.15;1.95;;;;;;;22.33;57.18;101187.02;;;;-60
2019/08/20 09:19:06;;;;;;;2.32;2.00;;;;;;;22.32;57.22;101188.38;;;;-51
2019/08/20 09:22:24;;;;;;;2.07;1.87;;;;;;;22.32;57.18;101194.20;;;;-58
2019/08/20 09:25:05;;;;;;;2.10;1.90;;;;;;;22.32;57.19;101201.34;;;;-58
2019/08/20 09:28:05;;;;;;;2.25;1.90;;;;;;;22.32;57.25;101206.83;;;;-57
2019/08/20 09:31:06;;;;;;;2.12;1.93;;;;;;;22.31;57.25;101201.40;;;;-57
2019/08/20 09:34:06;;;;;;;2.23;2.01;;;;;;;22.32;57.24;101204.71;;;;-57
2019/08/20 09:37:06;;;;;;;2.01;1.86;;;;;;;22.32;57.21;101201.84;;;;-57
2019/08/20 09:40:06;;;;;;;2.05;1.87;;;;;;;22.32;57.27;101204.30;;;;-56
2019/08/20 09:43:05;;;;;;;2.13;1.90;;;;;;;22.32;57.28;101206.39;;;;-49
2019/08/20 09:46:06;;;;;;;2.15;1.95;;;;;;;22.32;57.27;101209.52;;;;-50
2019/08/20 09:49:05;;;;;;;2.19;1.99;;;;;;;22.31;57.38;101206.85;;;;-49
2019/08/20 09:52:06;;;;;;;2.37;2.10;;;;;;;22.29;56.69;101208.38;;;;-51
2019/08/20 09:55:05;;;;;;;4.31;2.07;;;;;;;22.27;55.27;101211.72;;;;-48
2019/08/20 09:58:06;;;;;;;4.25;2.39;;;;;;;22.17;52.40;101213.39;;;;-49
2019/08/20 10:01:06;;;;;;;5.25;2.40;;;;;;;22.13;52.68;101212.73;;;;-52
2019/08/20 10:04:05;;;;;;;7.43;2.77;;;;;;;22.11;52.76;101213.98;;;;-51
2019/08/20 10:07:05;;;;;;;5.69;2.43;;;;;;;22.11;53.35;101215.06;;;;-50
2019/08/20 10:10:05;;;;;;;3.87;2.13;;;;;;;22.13;53.43;101221.20;;;;-52
2019/08/20 10:13:05;;;;;;;9.19;2.54;;;;;;;22.12;52.24;101224.59;;;;-49
2019/08/20 10:16:06;;;;;;;5.79;2.53;;;;;;;22.11;52.76;101227.75;;;;-51
2019/08/20 10:19:05;;;;;;;6.41;2.45;;;;;;;22.12;53.13;101227.63;;;;-50
2019/08/20 10:22:05;;;;;;;5.97;2.48;;;;;;;22.14;53.27;101229.91;;;;-46
2019/08/20 10:25:05;;;;;;;6.65;2.69;;;;;;;22.16;53.33;101223.14;;;;-50
2019/08/20 10:28:06;;;;;;;7.65;2.47;;;;;;;22.18;53.41;101224.20;;;;-50
2019/08/20 10:31:05;;;;;;;6.41;2.55;;;;;;;22.18;53.37;101222.63;;;;-50
2019/08/20 10:34:05;;;;;;;4.98;2.52;;;;;;;22.22;53.34;101220.58;;;;-50
2019/08/20 10:37:05;;;;;;;5.14;2.50;;;;;;;22.21;53.31;101219.28;;;;-51
2019/08/20 10:40:05;;;;;;;6.06;2.55;;;;;;;22.22;53.43;101217.55;;;;-50
2019/08/20 10:43:06;;;;;;;7.62;2.53;;;;;;;22.24;53.44;101215.99;;;;-50
2019/08/20 10:46:06;;;;;;;6.00;2.49;;;;;;;22.25;53.36;101211.29;;;;-47
2019/08/20 10:49:05;;;;;;;5.81;2.61;;;;;;;22.25;53.55;101206.86;;;;-51
2019/08/20 10:52:06;;;;;;;4.77;2.31;;;;;;;22.26;53.34;101205.38;;;;-49
2019/08/20 10:55:05;;;;;;;5.69;2.70;;;;;;;22.26;53.37;101205.14;;;;-50
2019/08/20 10:58:06;;;;;;;5.63;2.47;;;;;;;22.28;53.45;101200.52;;;;-50
2019/08/20 11:01:05;;;;;;;7.19;2.46;;;;;;;22.31;53.81;101203.48;;;;-51
2019/08/20 11:04:06;;;;;;;7.06;2.47;;;;;;;22.33;54.08;101198.86;;;;-50
2019/08/20 11:07:05;;;;;;;4.42;2.27;;;;;;;22.34;54.09;101194.56;;;;-50
2019/08/20 11:10:05;;;;;;;3.74;2.31;;;;;;;22.36;54.13;101195.32;;;;-50
2019/08/20 11:13:06;;;;;;;5.65;2.36;;;;;;;22.37;54.16;101195.64;;;;-51
2019/08/20 11:16:05;;;;;;;3.75;2.17;;;;;;;22.37;54.27;101191.60;;;;-51
2019/08/20 11:19:05;;;;;;;4.22;2.21;;;;;;;22.38;54.40;101194.58;;;;-51
2019/08/20 11:22:05;;;;;;;3.25;2.09;;;;;;;22.39;54.37;101202.09;;;;-51
2019/08/20 11:25:06;;;;;;;4.35;2.22;;;;;;;22.39;54.48;101197.75;;;;-51
2019/08/20 11:28:05;;;;;;;6.85;2.33;;;;;;;22.40;54.58;101198.20;;;;-51
2019/08/20 11:31:05;;;;;;;4.63;2.32;;;;;;;22.41;54.62;101199.92;;;;-51
2019/08/20 11:34:05;;;;;;;4.04;2.25;;;;;;;22.41;54.69;101201.77;;;;-51
2019/08/20 11:37:05;;;;;;;3.23;2.23;;;;;;;22.41;54.76;101198.98;;;;-51
2019/08/20 11:40:06;;;;;;;3.59;2.06;;;;;;;22.42;54.77;101196.84;;;;-51
2019/08/20 11:43:05;;;;;;;3.53;1.97;;;;;;;22.42;54.81;101204.84;;;;-50
2019/08/20 11:46:06;;;;;;;3.21;2.17;;;;;;;22.42;54.88;101204.85;;;;-50
2019/08/20 11:49:05;;;;;;;3.87;2.29;;;;;;;22.42;54.92;101204.68;;;;-49
2019/08/20 11:52:05;;;;;;;2.51;1.93;;;;;;;22.42;54.95;101204.45;;;;-49
2019/08/20 11:55:05;;;;;;;3.63;2.24;;;;;;;22.44;55.00;101211.00;;;;-50
2019/08/20 11:58:06;;;;;;;3.37;2.21;;;;;;;22.44;55.02;101213.02;;;;-50
2019/08/20 12:01:07;;;;;;;2.81;2.03;;;;;;;22.44;55.12;101213.34;;;;-50
2019/08/20 12:04:05;;;;;;;2.91;1.91;;;;;;;22.44;55.13;101216.72;;;;-49
2019/08/20 12:07:05;;;;;;;2.79;2.10;;;;;;;22.44;55.19;101209.82;;;;-50
2019/08/20 12:10:06;;;;;;;3.34;2.10;;;;;;;22.44;55.13;101207.73;;;;-50
2019/08/20 12:13:05;;;;;;;3.27;2.11;;;;;;;22.45;55.15;101209.69;;;;-49
2019/08/20 12:16:06;;;;;;;3.03;1.98;;;;;;;22.45;55.14;101206.16;;;;-50
2019/08/20 12:19:06;;;;;;;2.73;2.04;;;;;;;22.46;55.22;101214.86;;;;-49
2019/08/20 12:22:05;;;;;;;13.14;2.67;;;;;;;22.47;55.70;101211.41;;;;-48
2019/08/20 12:25:05;;;;;;;19.52;2.84;;;;;;;22.50;55.64;101207.23;;;;-49
2019/08/20 12:28:05;;;;;;;7.75;2.50;;;;;;;22.51;55.56;101205.98;;;;-51
2019/08/20 12:31:05;;;;;;;9.71;2.33;;;;;;;22.50;55.68;101208.80;;;;-53
2019/08/20 12:34:05;;;;;;;8.95;2.28;;;;;;;22.52;55.63;101207.44;;;;-50
2019/08/20 12:37:05;;;;;;;9.31;2.25;;;;;;;22.53;55.73;101209.81;;;;-51
2019/08/20 12:40:05;;;;;;;9.65;2.46;;;;;;;22.55;55.75;101216.16;;;;-51
2019/08/20 12:43:06;;;;;;;6.14;2.23;;;;;;;22.56;55.81;101218.89;;;;-50
2019/08/20 12:46:05;;;;;;;24.31;2.80;;;;;;;22.56;55.81;101218.44;;;;-50
2019/08/20 12:49:05;;;;;;;9.93;2.33;;;;;;;22.58;55.48;101220.70;;;;-48
2019/08/20 12:52:05;;;;;;;11.79;2.11;;;;;;;22.61;55.75;101224.00;;;;-49
2019/08/20 12:55:05;;;;;;;6.73;2.31;;;;;;;22.64;55.81;101240.57;;;;-47
2019/08/20 12:58:05;;;;;;;6.77;2.31;;;;;;;22.64;55.85;101244.95;;;;-48
2019/08/20 13:01:05;;;;;;;7.08;2.19;;;;;;;22.66;55.82;101252.67;;;;-50
2019/08/20 13:04:05;;;;;;;6.55;2.31;;;;;;;22.65;55.94;101256.00;;;;-49
2019/08/20 13:07:05;;;;;;;7.37;2.02;;;;;;;22.65;55.84;101256.00;;;;-49
2019/08/20 13:10:05;;;;;;;6.03;2.26;;;;;;;22.65;55.83;101261.56;;;;-49
2019/08/20 13:13:05;;;;;;;5.95;2.27;;;;;;;22.65;55.82;101265.77;;;;-49
2019/08/20 13:16:05;;;;;;;2.98;1.90;;;;;;;22.64;55.82;101266.67;;;;-49
2019/08/20 13:19:05;;;;;;;6.23;2.19;;;;;;;22.65;55.80;101272.44;;;;-49
2019/08/20 13:22:06;;;;;;;6.73;2.21;;;;;;;22.64;55.79;101272.97;;;;-50
2019/08/20 13:25:06;;;;;;;4.19;2.07;;;;;;;22.64;55.81;101272.80;;;;-51
2019/08/20 13:28:06;;;;;;;4.57;1.96;;;;;;;22.64;55.81;101281.05;;;;-50
2019/08/20 13:31:05;;;;;;;4.49;2.15;;;;;;;22.64;55.77;101285.09;;;;-49
2019/08/20 13:34:05;;;;;;;4.73;2.02;;;;;;;22.65;55.76;101288.83;;;;-50
2019/08/20 13:37:06;;;;;;;5.69;2.17;;;;;;;22.65;55.76;101291.63;;;;-49
2019/08/20 13:40:05;;;;;;;4.83;1.87;;;;;;;22.64;55.80;101293.84;;;;-49
2019/08/20 13:43:05;;;;;;;4.52;1.95;;;;;;;22.63;55.84;101290.27;;;;-49
2019/08/20 13:46:05;;;;;;;4.47;2.07;;;;;;;22.64;55.82;101287.27;;;;-55
2019/08/20 13:49:05;;;;;;;3.05;1.92;;;;;;;22.63;55.81;101292.28;;;;-57
2019/08/20 13:52:05;;;;;;;5.09;2.15;;;;;;;22.64;55.81;101294.69;;;;-57
2019/08/20 13:55:05;;;;;;;3.61;1.99;;;;;;;22.64;55.81;101289.06;;;;-57
2019/08/20 13:58:05;;;;;;;4.53;1.99;;;;;;;22.63;55.84;101290.77;;;;-57
2019/08/20 14:01:05;;;;;;;6.17;1.97;;;;;;;22.64;55.84;101290.98;;;;-57
2019/08/20 14:04:05;;;;;;;4.76;1.88;;;;;;;22.64;55.86;101297.72;;;;-57
2019/08/20 14:07:05;;;;;;;3.01;1.80;;;;;;;22.63;55.89;101297.78;;;;-57
2019/08/20 14:10:05;;;;;;;3.17;1.91;;;;;;;22.63;55.88;101302.38;;;;-57
2019/08/20 14:13:05;;;;;;;3.29;1.91;;;;;;;22.63;55.88;101312.48;;;;-57
2019/08/20 14:16:05;;;;;;;4.25;1.90;;;;;;;22.64;55.86;101313.64;;;;-56
2019/08/20 14:19:06;;;;;;;3.13;1.97;;;;;;;22.65;55.96;101319.76;;;;-56
2019/08/20 14:22:05;;;;;;;2.71;1.90;;;;;;;22.66;56.00;101320.38;;;;-58
2019/08/20 14:25:05;;;;;;;4.07;1.97;;;;;;;22.67;55.99;101322.38;;;;-58
2019/08/20 14:28:06;;;;;;;6.00;2.84;;;;;;;22.50;52.15;101325.87;;;;-57
2019/08/20 14:31:06;;;;;;;5.53;2.86;;;;;;;22.38;51.80;101325.29;;;;-55
2019/08/20 14:34:05;;;;;;;5.81;2.95;;;;;;;22.26;51.20;101332.09;;;;-56
2019/08/20 14:37:05;;;;;;;5.30;2.91;;;;;;;22.20;51.83;101340.62;;;;-56
2019/08/20 14:40:05;;;;;;;6.51;2.79;;;;;;;22.15;52.33;101343.18;;;;-59
2019/08/20 14:43:05;;;;;;;5.66;2.95;;;;;;;22.15;53.13;101341.50;;;;-55
2019/08/20 14:46:05;;;;;;;10.31;2.59;;;;;;;22.16;53.44;101347.67;;;;-56
2019/08/20 14:49:05;;;;;;;6.47;3.00;;;;;;;22.08;52.33;101347.94;;;;-54
2019/08/20 14:52:05;;;;;;;6.03;2.91;;;;;;;22.03;51.91;101347.09;;;;-57
2019/08/20 14:55:06;;;;;;;7.41;2.88;;;;;;;22.00;52.15;101352.49;;;;-56
2019/08/20 14:58:06;;;;;;;12.61;2.83;;;;;;;22.03;52.72;101353.53;;;;-57
2019/08/20 15:01:09;;;;;;;7.55;3.00;;;;;;;21.99;52.86;101357.59;;;;-59
2019/08/20 15:04:06;;;;;;;5.13;2.59;;;;;;;22.00;52.88;101357.97;;;;-58
2019/08/20 15:07:05;;;;;;;8.55;3.00;;;;;;;21.99;52.06;101359.91;;;;-58
2019/08/20 15:10:05;;;;;;;5.26;2.59;;;;;;;21.95;51.07;101361.05;;;;-54
2019/08/20 15:13:05;;;;;;;6.01;2.81;;;;;;;21.93;51.61;101366.38;;;;-54
2019/08/20 15:16:05;;;;;;;7.13;2.59;;;;;;;21.93;51.02;101361.10;;;;-57
2019/08/20 15:19:06;;;;;;;5.35;2.69;;;;;;;21.89;50.96;101357.38;;;;-57
2019/08/20 15:22:05;;;;;;;6.79;2.77;;;;;;;21.88;51.12;101351.94;;;;-57
2019/08/20 15:25:05;;;;;;;7.19;2.51;;;;;;;21.85;50.57;101346.92;;;;-59
2019/08/20 15:28:05;;;;;;;7.58;2.67;;;;;;;21.83;50.77;101346.20;;;;-56
2019/08/20 15:31:05;;;;;;;5.55;2.83;;;;;;;21.81;50.93;101354.12;;;;-57
2019/08/20 15:34:05;;;;;;;6.75;2.70;;;;;;;21.82;51.28;101355.85;;;;-56
2019/08/20 15:37:06;;;;;;;7.41;2.78;;;;;;;21.85;51.59;101357.34;;;;-57
2019/08/20 15:40:05;;;;;;;6.87;2.76;;;;;;;21.94;51.84;101356.63;;;;-56
2019/08/20 15:43:05;;;;;;;6.36;2.49;;;;;;;22.02;52.03;101357.52;;;;-59
2019/08/20 15:46:06;;;;;;;6.32;2.79;;;;;;;22.02;52.51;101365.20;;;;-59
2019/08/20 15:49:06;;;;;;;7.45;2.96;;;;;;;22.01;52.84;101364.64;;;;-55
2019/08/20 15:52:05;;;;;;;6.21;2.86;;;;;;;22.04;52.76;101360.92;;;;-54
2019/08/20 15:55:05;;;;;;;6.03;2.59;;;;;;;22.10;52.66;101361.55;;;;-57
2019/08/20 15:58:05;;;;;;;7.50;2.86;;;;;;;22.09;52.85;101371.53;;;;-55
2019/08/20 16:01:06;;;;;;;8.15;2.98;;;;;;;22.09;53.00;101373.72;;;;-57
2019/08/20 16:04:05;;;;;;;5.15;2.74;;;;;;;22.09;53.01;101375.23;;;;-56
2019/08/20 16:07:05;;;;;;;5.03;2.66;;;;;;;22.10;53.07;101382.08;;;;-57
2019/08/20 16:10:06;;;;;;;4.77;2.67;;;;;;;22.11;53.23;101387.00;;;;-56
2019/08/20 16:13:05;;;;;;;5.90;2.97;;;;;;;22.19;53.23;101382.58;;;;-59
2019/08/20 16:16:06;;;;;;;9.38;3.04;;;;;;;22.23;53.24;101370.99;;;;-62
2019/08/20 16:19:05;;;;;;;8.13;2.90;;;;;;;22.27;53.41;101366.30;;;;-58
2019/08/20 16:22:05;;;;;;;9.07;2.65;;;;;;;22.30;53.44;101364.94;;;;-59
2019/08/20 16:25:05;;;;;;;6.46;2.82;;;;;;;22.34;53.50;101373.59;;;;-59
2019/08/20 16:28:05;;;;;;;6.98;2.56;;;;;;;22.36;53.54;101383.16;;;;-54
2019/08/20 16:31:06;;;;;;;7.02;2.66;;;;;;;22.38;53.63;101383.41;;;;-49
2019/08/20 16:34:05;;;;;;;9.13;2.49;;;;;;;22.39;53.68;101386.44;;;;-49
2019/08/20 16:37:05;;;;;;;5.13;2.58;;;;;;;22.42;53.73;101384.69;;;;-54
2019/08/20 16:40:06;;;;;;;6.31;2.59;;;;;;;22.43;53.72;101394.27;;;;-50
2019/08/20 16:43:05;;;;;;;6.82;2.63;;;;;;;22.44;53.85;101396.39;;;;-50